sensor_id;sensor_type;location;lat;lon;timestamp;pressure;altitude;pressure_sealevel;temperature;humidity
5298;BME280;14738;42.668;23.250;2023-04-21T00:00:53;48455.81;;;-141.90;55.37
5298;BME280;14738;42.668;23.250;2023-04-21T00:03:19;48430.00;;;-141.90;55.21
5298;BME280;14738;42.668;23.250;2023-04-21T00:05:46;48457.81;;;-141.90;55.15
5298;BME280;14738;42.668;23.250;2023-04-21T00:08:12;48457.81;;;-141.90;55.21
5298;BME280;14738;42.668;23.250;2023-04-21T00:10:38;48445.88;;;-141.90;55.46
5298;BME280;14738;42.668;23.250;2023-04-21T00:13:03;48430.00;;;-141.90;55.38
5298;BME280;14738;42.668;23.250;2023-04-21T00:15:29;48461.78;;;-141.90;55.56
5298;BME280;14738;42.668;23.250;2023-04-21T00:17:54;48433.97;;;-141.90;55.62
5298;BME280;14738;42.668;23.250;2023-04-21T00:20:20;48449.84;;;-141.90;55.78
5298;BME280;14738;42.668;23.250;2023-04-21T00:22:45;48433.97;;;-141.90;55.70
5298;BME280;14738;42.668;23.250;2023-04-21T00:25:11;48439.94;;;-141.90;55.82
5298;BME280;14738;42.668;23.250;2023-04-21T00:27:36;48412.13;;;-141.90;55.80
5298;BME280;14738;42.668;23.250;2023-04-21T00:30:01;48449.84;;;-141.90;55.52
5298;BME280;14738;42.668;23.250;2023-04-21T00:32:27;48432.00;;;-141.90;55.40
5298;BME280;14738;42.668;23.250;2023-04-21T00:34:52;48449.84;;;-141.90;55.92
5298;BME280;14738;42.668;23.250;2023-04-21T00:37:18;48445.88;;;-141.90;55.61
5298;BME280;14738;42.668;23.250;2023-04-21T00:39:43;48437.94;;;-141.90;55.55
5298;BME280;14738;42.668;23.250;2023-04-21T00:42:08;48428.03;;;-141.90;55.72
5298;BME280;14738;42.668;23.250;2023-04-21T00:44:34;48443.91;;;-141.90;55.19
5298;BME280;14738;42.668;23.250;2023-04-21T00:47:00;48449.84;;;-141.90;55.10
5298;BME280;14738;42.668;23.250;2023-04-21T00:49:25;48449.84;;;-141.90;54.91
5298;BME280;14738;42.668;23.250;2023-04-21T00:51:52;48426.03;;;-141.90;54.91
5298;BME280;14738;42.668;23.250;2023-04-21T00:54:18;48461.78;;;-141.90;55.33
5298;BME280;14738;42.668;23.250;2023-04-21T00:56:44;48445.88;;;-141.90;54.92
5298;BME280;14738;42.668;23.250;2023-04-21T00:59:09;48424.06;;;-141.90;55.31
5298;BME280;14738;42.668;23.250;2023-04-21T01:01:35;48426.03;;;-141.90;55.67
5298;BME280;14738;42.668;23.250;2023-04-21T01:04:02;48467.72;;;-141.90;55.52
5298;BME280;14738;42.668;23.250;2023-04-21T01:06:32;48457.81;;;-141.90;56.12
5298;BME280;14738;42.668;23.250;2023-04-21T01:08:58;48410.16;;;-141.90;55.48
5298;BME280;14738;42.668;23.250;2023-04-21T01:11:24;48453.81;;;-141.90;55.16
5298;BME280;14738;42.668;23.250;2023-04-21T01:13:54;48451.84;;;-141.90;55.43
5298;BME280;14738;42.668;23.250;2023-04-21T01:16:20;48432.00;;;-141.90;55.26
5298;BME280;14738;42.668;23.250;2023-04-21T01:18:47;48428.03;;;-141.90;55.43
5298;BME280;14738;42.668;23.250;2023-04-21T01:21:13;48457.81;;;-141.90;55.72
5298;BME280;14738;42.668;23.250;2023-04-21T01:23:39;48449.84;;;-141.90;55.88
5298;BME280;14738;42.668;23.250;2023-04-21T01:26:05;48433.97;;;-141.90;55.63
5298;BME280;14738;42.668;23.250;2023-04-21T01:28:31;48457.81;;;-141.90;55.93
5298;BME280;14738;42.668;23.250;2023-04-21T01:30:56;48422.06;;;-141.90;56.30
5298;BME280;14738;42.668;23.250;2023-04-21T01:33:22;48439.94;;;-141.90;56.14
5298;BME280;14738;42.668;23.250;2023-04-21T01:35:48;48481.63;;;-141.90;55.82
5298;BME280;14738;42.668;23.250;2023-04-21T01:38:13;48469.72;;;-141.90;56.22
5298;BME280;14738;42.668;23.250;2023-04-21T01:40:46;48449.84;;;-141.90;55.99
5298;BME280;14738;42.668;23.250;2023-04-21T01:43:13;48453.81;;;-141.90;56.06
5298;BME280;14738;42.668;23.250;2023-04-21T01:45:39;48443.91;;;-141.90;55.94
5298;BME280;14738;42.668;23.250;2023-04-21T01:48:04;48467.72;;;-141.90;56.83
5298;BME280;14738;42.668;23.250;2023-04-21T01:50:30;48418.09;;;-141.90;57.18
5298;BME280;14738;42.668;23.250;2023-04-21T01:52:55;48447.88;;;-141.90;56.97
5298;BME280;14738;42.668;23.250;2023-04-21T01:55:21;48432.00;;;-141.90;56.68
5298;BME280;14738;42.668;23.250;2023-04-21T01:57:46;48428.03;;;-141.90;56.43
5298;BME280;14738;42.668;23.250;2023-04-21T02:00:12;48447.88;;;-141.90;56.20
5298;BME280;14738;42.668;23.250;2023-04-21T02:02:37;48447.88;;;-141.90;56.78
5298;BME280;14738;42.668;23.250;2023-04-21T02:05:03;48449.84;;;-141.90;56.23
5298;BME280;14738;42.668;23.250;2023-04-21T02:07:28;48449.84;;;-141.90;57.12
5298;BME280;14738;42.668;23.250;2023-04-21T02:09:54;48412.13;;;-141.90;56.76
5298;BME280;14738;42.668;23.250;2023-04-21T02:12:19;48459.78;;;-141.90;57.08
5298;BME280;14738;42.668;23.250;2023-04-21T02:14:44;48437.94;;;-141.90;57.07
5298;BME280;14738;42.668;23.250;2023-04-21T02:17:12;48461.78;;;-141.90;56.51
5298;BME280;14738;42.668;23.250;2023-04-21T02:19:38;48461.78;;;-141.90;56.31
5298;BME280;14738;42.668;23.250;2023-04-21T02:22:04;48432.00;;;-141.90;56.75
5298;BME280;14738;42.668;23.250;2023-04-21T02:24:31;48441.91;;;-141.90;56.89
5298;BME280;14738;42.668;23.250;2023-04-21T02:26:56;48432.00;;;-141.90;57.22
5298;BME280;14738;42.668;23.250;2023-04-21T02:29:22;48453.81;;;-141.90;56.70
5298;BME280;14738;42.668;23.250;2023-04-21T02:31:48;48439.94;;;-141.90;57.24
5298;BME280;14738;42.668;23.250;2023-04-21T02:34:13;48441.91;;;-141.90;56.67
5298;BME280;14738;42.668;23.250;2023-04-21T02:36:38;48447.88;;;-141.90;56.71
5298;BME280;14738;42.668;23.250;2023-04-21T02:39:04;48453.81;;;-141.90;56.70
5298;BME280;14738;42.668;23.250;2023-04-21T02:41:30;48449.84;;;-141.90;56.19
5298;BME280;14738;42.668;23.250;2023-04-21T02:43:55;48437.94;;;-141.90;55.75
5298;BME280;14738;42.668;23.250;2023-04-21T02:46:20;48433.97;;;-141.90;55.60
5298;BME280;14738;42.668;23.250;2023-04-21T02:48:46;48461.78;;;-141.90;55.48
5298;BME280;14738;42.668;23.250;2023-04-21T02:51:12;48451.84;;;-141.90;54.86
5298;BME280;14738;42.668;23.250;2023-04-21T02:53:38;48453.81;;;-141.90;54.93
5298;BME280;14738;42.668;23.250;2023-04-21T02:56:05;48455.81;;;-141.90;54.74
5298;BME280;14738;42.668;23.250;2023-04-21T02:58:32;48457.81;;;-141.90;54.33
5298;BME280;14738;42.668;23.250;2023-04-21T03:00:57;48449.84;;;-141.90;54.26
5298;BME280;14738;42.668;23.250;2023-04-21T03:03:23;48457.81;;;-141.90;54.04
5298;BME280;14738;42.668;23.250;2023-04-21T03:05:48;48445.88;;;-141.90;53.31
5298;BME280;14738;42.668;23.250;2023-04-21T03:08:13;48445.88;;;-141.90;53.67
5298;BME280;14738;42.668;23.250;2023-04-21T03:10:39;48443.91;;;-141.90;52.74
5298;BME280;14738;42.668;23.250;2023-04-21T03:13:05;48390.31;;;-141.90;52.34
5298;BME280;14738;42.668;23.250;2023-04-21T03:15:30;48426.03;;;-141.90;52.41
5298;BME280;14738;42.668;23.250;2023-04-21T03:17:56;48433.97;;;-141.90;52.05
5298;BME280;14738;42.668;23.250;2023-04-21T03:20:21;48432.00;;;-141.90;52.08
5298;BME280;14738;42.668;23.250;2023-04-21T03:22:46;48433.97;;;-141.90;51.88
5298;BME280;14738;42.668;23.250;2023-04-21T03:25:12;48439.94;;;-141.90;51.79
5298;BME280;14738;42.668;23.250;2023-04-21T03:27:37;48426.03;;;-141.90;52.19
5298;BME280;14738;42.668;23.250;2023-04-21T03:30:03;48451.84;;;-141.90;52.05
5298;BME280;14738;42.668;23.250;2023-04-21T03:32:29;48430.00;;;-141.90;52.33
5298;BME280;14738;42.668;23.250;2023-04-21T03:34:55;48441.91;;;-141.90;52.09
5298;BME280;14738;42.668;23.250;2023-04-21T03:37:20;48451.84;;;-141.90;52.46
5298;BME280;14738;42.668;23.250;2023-04-21T03:39:45;48430.00;;;-141.90;52.36
5298;BME280;14738;42.668;23.250;2023-04-21T03:42:11;48469.72;;;-141.90;52.43
5298;BME280;14738;42.668;23.250;2023-04-21T03:44:36;48416.09;;;-141.90;52.93
5298;BME280;14738;42.668;23.250;2023-04-21T03:47:01;48459.78;;;-141.90;52.78
5298;BME280;14738;42.668;23.250;2023-04-21T03:49:33;48437.94;;;-141.90;52.61
5298;BME280;14738;42.668;23.250;2023-04-21T03:51:58;48457.81;;;-141.90;52.69
5298;BME280;14738;42.668;23.250;2023-04-21T03:54:24;48443.91;;;-141.90;52.42
5298;BME280;14738;42.668;23.250;2023-04-21T03:56:49;48449.84;;;-141.90;52.91
5298;BME280;14738;42.668;23.250;2023-04-21T03:59:14;48457.81;;;-141.90;52.63
5298;BME280;14738;42.668;23.250;2023-04-21T04:01:40;48430.00;;;-141.90;52.26
5298;BME280;14738;42.668;23.250;2023-04-21T04:04:06;48418.09;;;-141.90;52.04
5298;BME280;14738;42.668;23.250;2023-04-21T04:06:31;48418.09;;;-141.90;51.55
5298;BME280;14738;42.668;23.250;2023-04-21T04:08:57;48430.00;;;-141.90;51.50
5298;BME280;14738;42.668;23.250;2023-04-21T04:11:22;48457.81;;;-141.90;51.34
5298;BME280;14738;42.668;23.250;2023-04-21T04:13:48;48441.91;;;-141.90;49.61
5298;BME280;14738;42.668;23.250;2023-04-21T04:16:13;48418.09;;;-141.90;48.78
5298;BME280;14738;42.668;23.250;2023-04-21T04:18:39;48430.00;;;-141.90;48.35
5298;BME280;14738;42.668;23.250;2023-04-21T04:21:07;48418.09;;;-141.90;48.07
5298;BME280;14738;42.668;23.250;2023-04-21T04:23:33;48443.91;;;-141.90;48.37
5298;BME280;14738;42.668;23.250;2023-04-21T04:25:59;48437.94;;;-141.90;48.62
5298;BME280;14738;42.668;23.250;2023-04-21T04:28:26;48418.09;;;-141.90;48.99
5298;BME280;14738;42.668;23.250;2023-04-21T04:30:51;48433.97;;;-141.90;48.62
5298;BME280;14738;42.668;23.250;2023-04-21T04:33:17;48430.00;;;-141.90;48.26
5298;BME280;14738;42.668;23.250;2023-04-21T04:35:42;48422.06;;;-141.90;48.54
5298;BME280;14738;42.668;23.250;2023-04-21T04:38:08;48439.94;;;-141.90;48.17
5298;BME280;14738;42.668;23.250;2023-04-21T04:40:33;48445.88;;;-141.90;48.13
5298;BME280;14738;42.668;23.250;2023-04-21T04:43:00;48453.81;;;-141.90;48.42
5298;BME280;14738;42.668;23.250;2023-04-21T04:45:26;48426.03;;;-141.90;48.40
5298;BME280;14738;42.668;23.250;2023-04-21T04:47:53;48422.06;;;-141.90;48.07
5298;BME280;14738;42.668;23.250;2023-04-21T04:50:19;48414.13;;;-141.90;47.88
5298;BME280;14738;42.668;23.250;2023-04-21T04:52:45;48414.13;;;-141.90;47.77
5298;BME280;14738;42.668;23.250;2023-04-21T04:55:12;48457.81;;;-141.90;47.86
5298;BME280;14738;42.668;23.250;2023-04-21T04:57:38;48426.03;;;-141.90;48.34
5298;BME280;14738;42.668;23.250;2023-04-21T05:00:05;48443.91;;;-141.90;48.05
5298;BME280;14738;42.668;23.250;2023-04-21T05:02:32;48414.13;;;-141.90;48.17
5298;BME280;14738;42.668;23.250;2023-04-21T05:04:57;48441.91;;;-141.90;47.27
5298;BME280;14738;42.668;23.250;2023-04-21T05:07:23;48412.13;;;-141.90;47.15
5298;BME280;14738;42.668;23.250;2023-04-21T05:09:48;48430.00;;;-141.90;47.36
5298;BME280;14738;42.668;23.250;2023-04-21T05:12:13;48443.91;;;-141.90;47.51
5298;BME280;14738;42.668;23.250;2023-04-21T05:14:39;48420.09;;;-141.90;47.28
5298;BME280;14738;42.668;23.250;2023-04-21T05:17:04;48449.84;;;-141.90;47.14
5298;BME280;14738;42.668;23.250;2023-04-21T05:19:30;48432.00;;;-141.90;47.63
5298;BME280;14738;42.668;23.250;2023-04-21T05:21:58;48388.31;;;-141.90;47.33
5298;BME280;14738;42.668;23.250;2023-04-21T05:24:26;48418.09;;;-141.90;46.05
5298;BME280;14738;42.668;23.250;2023-04-21T05:26:52;48457.81;;;-141.90;45.96
5298;BME280;14738;42.668;23.250;2023-04-21T05:29:18;48445.88;;;-141.90;45.66
5298;BME280;14738;42.668;23.250;2023-04-21T05:31:43;48416.09;;;-141.90;45.01
5298;BME280;14738;42.668;23.250;2023-04-21T05:34:09;48445.88;;;-141.90;43.05
5298;BME280;14738;42.668;23.250;2023-04-21T05:36:34;48426.03;;;-141.90;43.87
5298;BME280;14738;42.668;23.250;2023-04-21T05:38:59;48437.94;;;-141.90;44.08
5298;BME280;14738;42.668;23.250;2023-04-21T05:41:25;48422.06;;;-141.90;43.88
5298;BME280;14738;42.668;23.250;2023-04-21T05:43:50;48428.03;;;-141.90;43.40
5298;BME280;14738;42.668;23.250;2023-04-21T05:46:16;48443.91;;;-141.90;43.19
5298;BME280;14738;42.668;23.250;2023-04-21T05:48:41;48410.16;;;-141.90;43.13
5298;BME280;14738;42.668;23.250;2023-04-21T05:51:10;48430.00;;;-141.90;42.41
5298;BME280;14738;42.668;23.250;2023-04-21T05:53:39;48432.00;;;-141.90;42.98
5298;BME280;14738;42.668;23.250;2023-04-21T05:56:05;48447.88;;;-141.90;41.77
5298;BME280;14738;42.668;23.250;2023-04-21T05:58:31;48433.97;;;-141.90;41.13
5298;BME280;14738;42.668;23.250;2023-04-21T06:00:57;48469.72;;;-141.90;39.42
5298;BME280;14738;42.668;23.250;2023-04-21T06:03:22;48445.88;;;-141.90;39.00
5298;BME280;14738;42.668;23.250;2023-04-21T06:05:53;48473.69;;;-141.90;39.08
5298;BME280;14738;42.668;23.250;2023-04-21T06:08:18;48449.84;;;-141.90;37.63
5298;BME280;14738;42.668;23.250;2023-04-21T06:10:44;48495.53;;;-141.90;36.04
5298;BME280;14738;42.668;23.250;2023-04-21T06:13:09;48515.38;;;-141.90;34.50
5298;BME280;14738;42.668;23.250;2023-04-21T06:15:35;48485.59;;;-141.90;34.55
5298;BME280;14738;42.668;23.250;2023-04-21T06:18:00;48509.41;;;-141.90;35.22
5298;BME280;14738;42.668;23.250;2023-04-21T06:20:26;48469.72;;;-141.90;34.73
5298;BME280;14738;42.668;23.250;2023-04-21T06:22:52;48463.75;;;-141.90;34.74
5298;BME280;14738;42.668;23.250;2023-04-21T06:25:18;48479.63;;;-141.90;37.52
5298;BME280;14738;42.668;23.250;2023-04-21T06:27:43;48473.69;;;-141.90;36.63
5298;BME280;14738;42.668;23.250;2023-04-21T06:30:10;48475.66;;;-141.90;35.44
5298;BME280;14738;42.668;23.250;2023-04-21T06:32:35;48497.50;;;-141.90;33.85
5298;BME280;14738;42.668;23.250;2023-04-21T06:35:01;48513.38;;;-141.90;33.14
5298;BME280;14738;42.668;23.250;2023-04-21T06:37:26;48477.66;;;-141.90;34.37
5298;BME280;14738;42.668;23.250;2023-04-21T06:39:51;48501.47;;;-141.90;34.58
5298;BME280;14738;42.668;23.250;2023-04-21T06:42:17;48477.66;;;-141.90;34.95
5298;BME280;14738;42.668;23.250;2023-04-21T06:47:07;48497.50;;;-141.90;33.87
5298;BME280;14738;42.668;23.250;2023-04-21T06:49:33;48525.31;;;-141.90;31.72
5298;BME280;14738;42.668;23.250;2023-04-21T06:51:58;48523.31;;;-141.90;32.82
5298;BME280;14738;42.668;23.250;2023-04-21T06:54:24;48537.22;;;-141.90;31.14
5298;BME280;14738;42.668;23.250;2023-04-21T06:56:49;48523.31;;;-141.90;31.40
5298;BME280;14738;42.668;23.250;2023-04-21T06:59:15;48497.50;;;-141.90;30.75
5298;BME280;14738;42.668;23.250;2023-04-21T07:01:41;48517.34;;;-141.90;31.94
5298;BME280;14738;42.668;23.250;2023-04-21T07:04:06;48529.28;;;-141.90;32.60
5298;BME280;14738;42.668;23.250;2023-04-21T07:06:32;48509.41;;;-141.90;32.11
5298;BME280;14738;42.668;23.250;2023-04-21T07:08:57;48517.34;;;-141.90;31.83
5298;BME280;14738;42.668;23.250;2023-04-21T07:11:22;48519.34;;;-141.90;31.28
5298;BME280;14738;42.668;23.250;2023-04-21T07:13:48;48481.63;;;-141.90;32.25
5298;BME280;14738;42.668;23.250;2023-04-21T07:16:13;48461.78;;;-141.90;31.81
5298;BME280;14738;42.668;23.250;2023-04-21T07:18:39;48471.69;;;-141.90;33.40
5298;BME280;14738;42.668;23.250;2023-04-21T07:21:06;48469.72;;;-141.90;33.60
5298;BME280;14738;42.668;23.250;2023-04-21T07:28:21;48489.56;;;-141.90;33.54
5298;BME280;14738;42.668;23.250;2023-04-21T07:30:47;48461.78;;;-141.90;34.48
5298;BME280;14738;42.668;23.250;2023-04-21T07:33:12;48445.88;;;-141.90;34.89
5298;BME280;14738;42.668;23.250;2023-04-21T07:35:38;48471.69;;;-141.90;35.92
5298;BME280;14738;42.668;23.250;2023-04-21T07:38:03;48465.75;;;-141.90;35.09
5298;BME280;14738;42.668;23.250;2023-04-21T07:45:39;48497.50;;;-141.90;34.20
5298;BME280;14738;42.668;23.250;2023-04-21T07:48:04;48473.69;;;-141.90;33.73
5298;BME280;14738;42.668;23.250;2023-04-21T07:50:30;48503.47;;;-141.90;35.17
5298;BME280;14738;42.668;23.250;2023-04-21T07:52:56;48525.31;;;-141.90;32.89
5298;BME280;14738;42.668;23.250;2023-04-21T07:55:21;48527.28;;;-141.90;30.74
5298;BME280;14738;42.668;23.250;2023-04-21T07:57:46;48539.19;;;-141.90;30.89
5298;BME280;14738;42.668;23.250;2023-04-21T08:00:12;48543.16;;;-141.90;32.22
5298;BME280;14738;42.668;23.250;2023-04-21T08:02:38;48521.34;;;-141.90;30.37
5298;BME280;14738;42.668;23.250;2023-04-21T08:05:03;48521.34;;;-141.90;31.26
5298;BME280;14738;42.668;23.250;2023-04-21T08:07:29;48509.41;;;-141.90;32.37
5298;BME280;14738;42.668;23.250;2023-04-21T08:09:55;48495.53;;;-141.90;32.38
5298;BME280;14738;42.668;23.250;2023-04-21T08:12:21;48481.63;;;-141.90;33.30
5298;BME280;14738;42.668;23.250;2023-04-21T08:14:46;48479.63;;;-141.90;33.05
5298;BME280;14738;42.668;23.250;2023-04-21T08:28:55;48574.94;;;-141.90;30.62
5298;BME280;14738;42.668;23.250;2023-04-21T08:31:21;48557.06;;;-141.90;29.22
5298;BME280;14738;42.668;23.250;2023-04-21T08:33:47;48517.34;;;-141.90;30.47
5298;BME280;14738;42.668;23.250;2023-04-21T08:36:12;48499.50;;;-141.90;31.26
5298;BME280;14738;42.668;23.250;2023-04-21T08:45:54;48467.72;;;-141.90;32.80
5298;BME280;14738;42.668;23.250;2023-04-21T08:48:23;48469.72;;;-141.90;31.95
5298;BME280;14738;42.668;23.250;2023-04-21T08:50:50;48457.81;;;-141.90;32.65
5298;BME280;14738;42.668;23.250;2023-04-21T08:53:16;48511.41;;;-141.90;33.22
5298;BME280;14738;42.668;23.250;2023-04-21T08:55:42;48485.59;;;-141.90;33.66
5298;BME280;14738;42.668;23.250;2023-04-21T08:58:08;48473.69;;;-141.90;31.89
5298;BME280;14738;42.668;23.250;2023-04-21T09:00:34;48501.47;;;-141.90;32.15
5298;BME280;14738;42.668;23.250;2023-04-21T09:03:00;48465.75;;;-141.90;34.18
5298;BME280;14738;42.668;23.250;2023-04-21T09:05:32;48485.59;;;-141.90;33.83
5298;BME280;14738;42.668;23.250;2023-04-21T09:08:14;48471.69;;;-141.90;32.88
5298;BME280;14738;42.668;23.250;2023-04-21T09:10:50;48501.47;;;-141.90;32.40
5298;BME280;14738;42.668;23.250;2023-04-21T09:18:14;48525.31;;;-141.90;33.33
5298;BME280;14738;42.668;23.250;2023-04-21T09:20:41;48485.59;;;-141.90;33.80
5298;BME280;14738;42.668;23.250;2023-04-21T09:23:09;48449.84;;;-141.90;33.85
5298;BME280;14738;42.668;23.250;2023-04-21T09:25:37;48469.72;;;-141.90;34.22
5298;BME280;14738;42.668;23.250;2023-04-21T09:32:57;48471.69;;;-141.90;33.40
5298;BME280;14738;42.668;23.250;2023-04-21T09:35:27;48477.66;;;-141.90;32.26
5298;BME280;14738;42.668;23.250;2023-04-21T09:37:53;48525.31;;;-141.90;33.13
5298;BME280;14738;42.668;23.250;2023-04-21T09:40:18;48525.31;;;-141.90;30.26
5298;BME280;14738;42.668;23.250;2023-04-21T09:42:44;48525.31;;;-141.90;29.97
5298;BME280;14738;42.668;23.250;2023-04-21T09:45:10;48473.69;;;-141.90;29.93
5298;BME280;14738;42.668;23.250;2023-04-21T09:47:40;48517.34;;;-141.90;29.66
5298;BME280;14738;42.668;23.250;2023-04-21T09:50:08;48507.44;;;-141.90;32.41
5298;BME280;14738;42.668;23.250;2023-04-21T09:52:36;48481.63;;;-141.90;30.03
5298;BME280;14738;42.668;23.250;2023-04-21T09:55:03;48517.34;;;-141.90;30.70
5298;BME280;14738;42.668;23.250;2023-04-21T09:57:36;48559.06;;;-141.90;30.97
5298;BME280;14738;42.668;23.250;2023-04-21T10:00:05;48521.34;;;-141.90;29.18
5298;BME280;14738;42.668;23.250;2023-04-21T10:02:34;48527.28;;;-141.90;27.77
5298;BME280;14738;42.668;23.250;2023-04-21T10:07:31;48495.53;;;-141.90;29.61
5298;BME280;14738;42.668;23.250;2023-04-21T10:09:58;48533.25;;;-141.90;29.60
5298;BME280;14738;42.668;23.250;2023-04-21T10:12:27;48501.47;;;-141.90;28.96
5298;BME280;14738;42.668;23.250;2023-04-21T10:14:54;48465.75;;;-141.90;29.86
5298;BME280;14738;42.668;23.250;2023-04-21T10:17:24;48485.59;;;-141.90;30.84
5298;BME280;14738;42.668;23.250;2023-04-21T10:19:54;48497.50;;;-141.90;30.82
5298;BME280;14738;42.668;23.250;2023-04-21T10:24:54;48477.66;;;-141.90;31.59
5298;BME280;14738;42.668;23.250;2023-04-21T10:27:34;48477.66;;;-141.90;32.55
5298;BME280;14738;42.668;23.250;2023-04-21T10:30:05;48489.56;;;-141.90;31.40
5298;BME280;14738;42.668;23.250;2023-04-21T10:32:42;48501.47;;;-141.90;32.86
5298;BME280;14738;42.668;23.250;2023-04-21T10:37:34;48467.72;;;-141.90;32.17
5298;BME280;14738;42.668;23.250;2023-04-21T10:39:59;48527.28;;;-141.90;31.97
5298;BME280;14738;42.668;23.250;2023-04-21T10:42:26;48467.72;;;-141.90;30.76
5298;BME280;14738;42.668;23.250;2023-04-21T10:52:11;48471.69;;;-141.90;31.12
5298;BME280;14738;42.668;23.250;2023-04-21T10:55:04;48489.56;;;-141.90;30.94
5298;BME280;14738;42.668;23.250;2023-04-21T10:57:32;48503.47;;;-141.90;31.12
5298;BME280;14738;42.668;23.250;2023-04-21T10:59:58;48493.53;;;-141.90;29.78
5298;BME280;14738;42.668;23.250;2023-04-21T11:02:23;48489.56;;;-141.90;29.12
5298;BME280;14738;42.668;23.250;2023-04-21T11:04:53;48507.44;;;-141.90;29.23
5298;BME280;14738;42.668;23.250;2023-04-21T11:07:20;48493.53;;;-141.90;29.22
5298;BME280;14738;42.668;23.250;2023-04-21T11:09:47;48489.56;;;-141.90;28.68
5298;BME280;14738;42.668;23.250;2023-04-21T11:12:17;48493.53;;;-141.90;28.55
5298;BME280;14738;42.668;23.250;2023-04-21T11:14:44;48509.41;;;-141.90;28.80
5298;BME280;14738;42.668;23.250;2023-04-21T11:17:13;48485.59;;;-141.90;28.54
5298;BME280;14738;42.668;23.250;2023-04-21T11:36:20;48455.81;;;-141.90;31.03
5298;BME280;14738;42.668;23.250;2023-04-21T11:38:46;48493.53;;;-141.90;32.18
5298;BME280;14738;42.668;23.250;2023-04-21T11:41:11;48441.91;;;-141.90;32.40
5298;BME280;14738;42.668;23.250;2023-04-21T11:43:37;48477.66;;;-141.90;31.82
5298;BME280;14738;42.668;23.250;2023-04-21T11:48:28;48461.78;;;-141.90;32.01
5298;BME280;14738;42.668;23.250;2023-04-21T11:50:53;48449.84;;;-141.90;31.07
5298;BME280;14738;42.668;23.250;2023-04-21T11:53:19;48441.91;;;-141.90;30.82
5298;BME280;14738;42.668;23.250;2023-04-21T11:55:45;48465.75;;;-141.90;30.49
5298;BME280;14738;42.668;23.250;2023-04-21T11:58:10;48447.88;;;-141.90;30.64
5298;BME280;14738;42.668;23.250;2023-04-21T12:00:42;48477.66;;;-141.90;30.18
5298;BME280;14738;42.668;23.250;2023-04-21T12:03:08;48453.81;;;-141.90;30.62
5298;BME280;14738;42.668;23.250;2023-04-21T12:05:35;48447.88;;;-141.90;31.06
5298;BME280;14738;42.668;23.250;2023-04-21T12:12:51;48465.75;;;-141.90;30.61
5298;BME280;14738;42.668;23.250;2023-04-21T12:15:19;48459.78;;;-141.90;30.72
5298;BME280;14738;42.668;23.250;2023-04-21T12:17:48;48473.69;;;-141.90;29.65
5298;BME280;14738;42.668;23.250;2023-04-21T12:20:23;48463.75;;;-141.90;30.68
5298;BME280;14738;42.668;23.250;2023-04-21T12:22:50;48449.84;;;-141.90;30.35
5298;BME280;14738;42.668;23.250;2023-04-21T12:25:16;48437.94;;;-141.90;30.17
5298;BME280;14738;42.668;23.250;2023-04-21T12:27:51;48449.84;;;-141.90;30.34
5298;BME280;14738;42.668;23.250;2023-04-21T12:30:18;48457.81;;;-141.90;29.87
5298;BME280;14738;42.668;23.250;2023-04-21T12:32:44;48445.88;;;-141.90;29.83
5298;BME280;14738;42.668;23.250;2023-04-21T12:35:09;48461.78;;;-141.90;29.60
5298;BME280;14738;42.668;23.250;2023-04-21T12:37:35;48461.78;;;-141.90;30.00
5298;BME280;14738;42.668;23.250;2023-04-21T12:40:00;48447.88;;;-141.90;30.01
5298;BME280;14738;42.668;23.250;2023-04-21T12:42:26;48479.63;;;-141.90;29.84
5298;BME280;14738;42.668;23.250;2023-04-21T12:44:51;48455.81;;;-141.90;29.15
5298;BME280;14738;42.668;23.250;2023-04-21T12:47:17;48443.91;;;-141.90;28.51
5298;BME280;14738;42.668;23.250;2023-04-21T12:49:42;48449.84;;;-141.90;30.01
5298;BME280;14738;42.668;23.250;2023-04-21T12:52:08;48453.81;;;-141.90;30.08
5298;BME280;14738;42.668;23.250;2023-04-21T13:26:52;48479.63;;;-141.90;29.45
5298;BME280;14738;42.668;23.250;2023-04-21T13:29:18;48477.66;;;-141.90;27.60
5298;BME280;14738;42.668;23.250;2023-04-21T13:31:44;48473.69;;;-141.90;27.77
5298;BME280;14738;42.668;23.250;2023-04-21T13:34:09;48479.63;;;-141.90;26.50
5298;BME280;14738;42.668;23.250;2023-04-21T13:36:35;48469.72;;;-141.90;27.48
5298;BME280;14738;42.668;23.250;2023-04-21T13:39:00;48473.69;;;-141.90;27.65
5298;BME280;14738;42.668;23.250;2023-04-21T13:43:51;48453.81;;;-141.90;27.90
5298;BME280;14738;42.668;23.250;2023-04-21T13:46:18;48465.75;;;-141.90;28.44
5298;BME280;14738;42.668;23.250;2023-04-21T13:48:44;48449.84;;;-141.90;28.35
5298;BME280;14738;42.668;23.250;2023-04-21T13:51:17;48461.78;;;-141.90;28.40
5298;BME280;14738;42.668;23.250;2023-04-21T13:53:43;48473.69;;;-141.90;27.99
5298;BME280;14738;42.668;23.250;2023-04-21T13:56:08;48461.78;;;-141.90;28.38
5298;BME280;14738;42.668;23.250;2023-04-21T13:58:36;48461.78;;;-141.90;28.60
5298;BME280;14738;42.668;23.250;2023-04-21T14:01:01;48473.69;;;-141.90;28.75
5298;BME280;14738;42.668;23.250;2023-04-21T14:08:18;48449.84;;;-141.90;28.98
5298;BME280;14738;42.668;23.250;2023-04-21T14:10:43;48473.69;;;-141.90;29.20
5298;BME280;14738;42.668;23.250;2023-04-21T14:13:09;48445.88;;;-141.90;29.00
5298;BME280;14738;42.668;23.250;2023-04-21T14:15:40;48451.84;;;-141.90;28.38
5298;BME280;14738;42.668;23.250;2023-04-21T14:18:06;48487.56;;;-141.90;28.57
5298;BME280;14738;42.668;23.250;2023-04-21T14:20:34;48473.69;;;-141.90;28.10
5298;BME280;14738;42.668;23.250;2023-04-21T14:23:00;48473.69;;;-141.90;28.25
5298;BME280;14738;42.668;23.250;2023-04-21T15:12:29;48467.72;;;-141.90;30.36
5298;BME280;14738;42.668;23.250;2023-04-21T15:14:55;48441.91;;;-141.90;30.80
5298;BME280;14738;42.668;23.250;2023-04-21T15:17:21;48469.72;;;-141.90;29.96
5298;BME280;14738;42.668;23.250;2023-04-21T15:19:46;48449.84;;;-141.90;30.11
5298;BME280;14738;42.668;23.250;2023-04-21T15:22:11;48453.81;;;-141.90;29.49